createdAt,value
2022-09-17T00:00:58.223Z,55.02
2022-09-17T00:01:58.594Z,55.02
2022-09-17T00:02:58.805Z,55.02
2022-09-17T00:03:59.120Z,55.02
2022-09-17T00:04:59.425Z,55.02
2022-09-17T00:05:59.662Z,55.12
2022-09-17T00:06:59.915Z,55.12
2022-09-17T00:08:00.165Z,55.12
2022-09-17T00:09:00.414Z,55.12
2022-09-17T00:10:00.654Z,55.12
2022-09-17T00:11:00.886Z,55.12
2022-09-17T00:12:01.140Z,55.12
2022-09-17T00:13:01.388Z,55.12
2022-09-17T00:14:01.763Z,55.12
2022-09-17T00:15:01.866Z,55.12
2022-09-17T00:16:02.176Z,55.22
2022-09-17T00:17:02.405Z,55.22
2022-09-17T00:18:02.647Z,55.22
2022-09-17T00:19:02.891Z,55.22
2022-09-17T00:20:03.129Z,55.22
2022-09-17T00:21:03.379Z,55.22
2022-09-17T00:22:03.620Z,55.22
2022-09-17T00:23:03.870Z,55.22
2022-09-17T00:24:04.111Z,55.22
2022-09-17T00:25:04.351Z,55.22
2022-09-17T00:26:04.593Z,55.22
2022-09-17T00:27:04.832Z,55.22
2022-09-17T00:28:05.082Z,55.22
2022-09-17T00:29:05.323Z,55.22
2022-09-17T00:30:05.576Z,55.22
2022-09-17T00:31:05.872Z,55.22
2022-09-17T00:32:06.084Z,55.22
2022-09-17T00:33:06.343Z,55.22
2022-09-17T00:34:06.581Z,55.22
2022-09-17T00:35:06.844Z,55.22
2022-09-17T00:36:07.084Z,55.22
2022-09-17T00:37:07.335Z,55.22
2022-09-17T00:38:07.575Z,55.22
2022-09-17T00:39:07.823Z,55.22
2022-09-17T00:40:08.107Z,55.22
2022-09-17T00:41:08.397Z,55.22
2022-09-17T00:42:08.606Z,55.22
2022-09-17T00:43:08.865Z,55.22
2022-09-17T00:44:09.105Z,55.22
2022-09-17T00:45:09.398Z,55.22
2022-09-17T00:46:09.664Z,55.22
2022-09-17T00:47:09.928Z,55.22
2022-09-17T00:48:10.207Z,55.22
2022-09-17T00:49:10.448Z,55.22
2022-09-17T00:50:10.679Z,55.22
2022-09-17T00:51:10.919Z,55.22
2022-09-17T00:52:11.167Z,55.22
2022-09-17T00:53:11.428Z,55.22
2022-09-17T00:54:11.720Z,55.22
2022-09-17T00:55:11.970Z,55.32
2022-09-17T00:56:12.212Z,55.32
2022-09-17T00:57:12.451Z,55.22
2022-09-17T00:58:12.700Z,55.22
2022-09-17T00:59:12.932Z,55.22
2022-09-17T01:00:13.192Z,55.22
2022-09-17T01:01:13.528Z,55.22
2022-09-17T01:02:13.801Z,55.22
2022-09-17T01:03:14.060Z,55.22
2022-09-17T01:04:14.341Z,55.22
2022-09-17T01:05:14.573Z,55.22
2022-09-17T01:06:14.832Z,55.22
2022-09-17T01:07:15.133Z,55.22
2022-09-17T01:08:15.355Z,55.22
2022-09-17T01:09:15.595Z,55.22
2022-09-17T01:10:15.838Z,55.22
2022-09-17T01:11:16.096Z,55.22
2022-09-17T01:12:16.335Z,55.22
2022-09-17T01:13:16.576Z,55.32
2022-09-17T01:14:16.907Z,55.32
2022-09-17T01:15:17.107Z,55.32
2022-09-17T01:16:17.428Z,55.32
2022-09-17T01:17:17.646Z,55.32
2022-09-17T01:18:17.888Z,55.32
2022-09-17T01:19:18.138Z,55.32
2022-09-17T01:20:18.378Z,55.32
2022-09-17T01:21:18.628Z,55.32
2022-09-17T01:22:18.877Z,55.32
2022-09-17T01:23:19.120Z,55.32
2022-09-17T01:24:19.360Z,55.32
2022-09-17T01:25:19.609Z,55.32
2022-09-17T01:26:19.859Z,55.32
2022-09-17T01:27:20.099Z,55.32
2022-09-17T01:28:20.342Z,55.32
2022-09-17T01:29:20.591Z,55.35
2022-09-17T01:30:20.833Z,55.35
2022-09-17T01:31:21.138Z,55.35
2022-09-17T01:32:21.362Z,55.32
2022-09-17T01:33:21.612Z,55.32
2022-09-17T01:34:21.850Z,55.32
2022-09-17T01:35:22.083Z,55.32
2022-09-17T01:36:22.332Z,55.35
2022-09-17T01:37:22.572Z,55.35
2022-09-17T01:38:22.814Z,55.32
2022-09-17T01:39:23.055Z,55.35
2022-09-17T01:40:23.350Z,55.35
2022-09-17T01:41:23.583Z,55.32
2022-09-17T01:42:23.824Z,55.35
2022-09-17T01:43:24.067Z,55.35
2022-09-17T01:44:24.309Z,55.35
2022-09-17T01:45:24.555Z,55.35
2022-09-17T01:46:24.847Z,55.44
2022-09-17T01:47:25.094Z,55.44
2022-09-17T01:48:25.337Z,55.44
2022-09-17T01:49:25.577Z,55.44
2022-09-17T01:50:25.877Z,55.44
2022-09-17T01:51:26.118Z,55.44
2022-09-17T01:52:26.364Z,55.44
2022-09-17T01:53:26.609Z,55.44
2022-09-17T01:54:26.852Z,55.35
2022-09-17T01:55:27.091Z,55.35
2022-09-17T01:56:27.331Z,55.35
2022-09-17T01:57:27.580Z,55.35
2022-09-17T01:58:27.829Z,55.35
2022-09-17T01:59:28.072Z,55.35
2022-09-17T02:00:28.308Z,55.44
2022-09-17T02:01:28.549Z,55.44
2022-09-17T02:02:28.815Z,55.35
2022-09-17T02:03:29.062Z,55.44
2022-09-17T02:04:29.302Z,55.44
2022-09-17T02:05:29.545Z,55.35
2022-09-17T02:06:29.793Z,55.44
2022-09-17T02:07:30.044Z,55.44
2022-09-17T02:08:30.293Z,55.44
2022-09-17T02:09:30.534Z,55.35
2022-09-17T02:10:30.774Z,55.44
2022-09-17T02:11:31.014Z,55.35
2022-09-17T02:12:31.255Z,55.35
2022-09-17T02:13:31.503Z,55.35
2022-09-17T02:14:31.735Z,55.44
2022-09-17T02:15:31.976Z,55.44
2022-09-17T02:16:32.278Z,55.44
2022-09-17T02:17:32.514Z,55.44
2022-09-17T02:18:32.757Z,55.44
2022-09-17T02:19:33.005Z,55.44
2022-09-17T02:20:33.238Z,55.44
2022-09-17T02:21:33.489Z,55.44
2022-09-17T02:22:33.728Z,55.44
2022-09-17T02:23:33.969Z,55.44
2022-09-17T02:24:34.210Z,55.44
2022-09-17T02:25:34.456Z,55.44
2022-09-17T02:26:34.690Z,55.44
2022-09-17T02:27:34.940Z,55.44
2022-09-17T02:28:35.190Z,55.44
2022-09-17T02:29:35.440Z,55.44
2022-09-17T02:30:35.681Z,55.35
2022-09-17T02:31:35.975Z,55.35
2022-09-17T02:32:36.262Z,55.44
2022-09-17T02:33:36.501Z,55.44
2022-09-17T02:34:36.741Z,55.35
2022-09-17T02:35:37.061Z,55.35
2022-09-17T02:36:37.322Z,55.35
2022-09-17T02:37:37.563Z,55.35
2022-09-17T02:38:37.803Z,55.35
2022-09-17T02:39:38.083Z,55.35
2022-09-17T02:40:38.369Z,55.35
2022-09-17T02:41:38.632Z,55.35
2022-09-17T02:42:38.865Z,55.44
2022-09-17T02:43:39.112Z,55.44
2022-09-17T02:44:39.355Z,55.35
2022-09-17T02:45:39.595Z,55.35
2022-09-17T02:46:39.913Z,55.35
2022-09-17T02:47:40.117Z,55.35
2022-09-17T02:48:40.356Z,55.35
2022-09-17T02:49:40.617Z,55.35
2022-09-17T02:50:40.857Z,55.35
2022-09-17T02:51:41.152Z,55.44
2022-09-17T02:52:41.387Z,55.44
2022-09-17T02:53:41.628Z,55.44
2022-09-17T02:54:41.888Z,55.35
2022-09-17T02:55:42.129Z,55.44
2022-09-17T02:56:42.370Z,55.44
2022-09-17T02:57:42.610Z,55.44
2022-09-17T02:58:42.849Z,55.35
2022-09-17T02:59:43.111Z,55.35
2022-09-17T03:00:43.415Z,55.35
2022-09-17T03:01:43.716Z,55.44
2022-09-17T03:02:43.935Z,55.44
2022-09-17T03:03:44.181Z,55.44
2022-09-17T03:04:44.432Z,55.44
2022-09-17T03:05:44.671Z,55.35
2022-09-17T03:06:44.913Z,55.35
2022-09-17T03:07:45.152Z,55.35
2022-09-17T03:08:45.413Z,55.44
2022-09-17T03:09:45.664Z,55.35
2022-09-17T03:10:45.911Z,55.35
2022-09-17T03:11:46.151Z,55.35
2022-09-17T03:12:46.393Z,55.35
2022-09-17T03:13:46.644Z,55.44
2022-09-17T03:14:46.885Z,55.44
2022-09-17T03:15:47.164Z,55.35
2022-09-17T03:16:47.401Z,55.35
2022-09-17T03:17:52.617Z,55.44
2022-09-17T03:18:49.384Z,55.35
2022-09-17T03:19:48.196Z,55.35
2022-09-17T03:20:48.433Z,55.35
2022-09-17T03:21:48.666Z,55.35
2022-09-17T03:22:48.908Z,55.44
2022-09-17T03:23:49.207Z,55.44
2022-09-17T03:24:49.458Z,55.44
2022-09-17T03:25:49.708Z,55.35
2022-09-17T03:26:49.949Z,55.44
2022-09-17T03:27:50.198Z,55.44
2022-09-17T03:28:50.439Z,55.35
2022-09-17T03:29:50.681Z,55.35
2022-09-17T03:30:50.920Z,55.44
2022-09-17T03:31:51.213Z,55.35
2022-09-17T03:32:51.444Z,55.35
2022-09-17T03:33:51.691Z,55.35
2022-09-17T03:34:51.932Z,55.44
2022-09-17T03:35:52.172Z,55.44
2022-09-17T03:36:52.417Z,55.35
2022-09-17T03:37:52.652Z,55.35
2022-09-17T03:38:52.892Z,55.35
2022-09-17T03:39:53.204Z,55.35
2022-09-17T03:40:53.446Z,55.35
2022-09-17T03:41:53.685Z,55.35
2022-09-17T03:42:53.924Z,55.44
2022-09-17T03:43:54.164Z,55.44
2022-09-17T03:44:54.406Z,55.44
2022-09-17T03:45:54.644Z,55.44
2022-09-17T03:46:54.963Z,55.44
2022-09-17T03:47:55.175Z,55.44
2022-09-17T03:48:55.438Z,55.44
2022-09-17T03:49:55.695Z,55.44
2022-09-17T03:50:55.949Z,55.44
2022-09-17T03:51:56.218Z,55.44
2022-09-17T03:52:56.456Z,55.44
2022-09-17T03:53:56.755Z,55.44
2022-09-17T03:54:56.988Z,55.44
2022-09-17T03:55:57.228Z,55.44
2022-09-17T03:56:57.470Z,55.55
2022-09-17T03:57:57.721Z,55.55
2022-09-17T03:58:57.967Z,55.55
2022-09-17T03:59:58.240Z,55.55
2022-09-17T04:00:58.479Z,55.55
2022-09-17T04:01:58.839Z,55.55
2022-09-17T04:02:59.027Z,55.55
2022-09-17T04:03:59.347Z,55.55
2022-09-17T04:04:59.531Z,55.55
2022-09-17T04:05:59.781Z,55.55
2022-09-17T04:07:00.021Z,55.55
2022-09-17T04:08:00.270Z,55.44
2022-09-17T04:09:00.515Z,55.55
2022-09-17T04:10:00.752Z,55.55
2022-09-17T04:11:01.002Z,55.44
2022-09-17T04:12:01.243Z,55.44
2022-09-17T04:13:01.484Z,55.44
2022-09-17T04:14:01.735Z,55.44
2022-09-17T04:15:01.973Z,55.44
2022-09-17T04:16:02.325Z,55.44
2022-09-17T04:17:02.534Z,55.44
2022-09-17T04:18:02.782Z,55.44
2022-09-17T04:19:03.678Z,55.44
2022-09-17T04:20:03.335Z,55.44
2022-09-17T04:21:03.578Z,55.44
2022-09-17T04:22:03.816Z,55.44
2022-09-17T04:23:04.056Z,55.44
2022-09-17T04:24:04.307Z,55.55
2022-09-17T04:25:04.557Z,55.55
2022-09-17T04:26:04.801Z,55.55
2022-09-17T04:27:05.037Z,55.55
2022-09-17T04:28:05.278Z,55.55
2022-09-17T04:29:05.528Z,55.55
2022-09-17T04:30:05.778Z,55.55
2022-09-17T04:31:06.114Z,55.55
2022-09-17T04:32:06.319Z,55.55
2022-09-17T04:33:06.556Z,55.55
2022-09-17T04:34:06.802Z,55.55
2022-09-17T04:35:07.049Z,55.55
2022-09-17T04:36:07.290Z,55.55
2022-09-17T04:37:07.542Z,55.55
2022-09-17T04:38:07.786Z,55.55
2022-09-17T04:39:08.052Z,55.44
2022-09-17T04:40:08.503Z,55.55
2022-09-17T04:41:08.601Z,55.55
2022-09-17T04:42:08.843Z,55.44
2022-09-17T04:43:09.082Z,55.44
2022-09-17T04:44:09.342Z,55.44
2022-09-17T04:45:09.583Z,55.44
2022-09-17T04:46:09.871Z,55.44
2022-09-17T04:47:10.127Z,55.44
2022-09-17T04:48:10.364Z,55.35
2022-09-17T04:49:10.605Z,55.35
2022-09-17T04:50:10.854Z,55.35
2022-09-17T04:51:11.105Z,55.35
2022-09-17T04:52:11.345Z,55.35
2022-09-17T04:53:11.586Z,55.35
2022-09-17T04:54:11.836Z,55.44
2022-09-17T04:55:12.076Z,55.44
2022-09-17T04:56:12.326Z,55.35
2022-09-17T04:57:12.557Z,55.24
2022-09-17T04:58:12.798Z,55.24
2022-09-17T04:59:13.062Z,55.24
2022-09-17T05:00:13.318Z,55.24
2022-09-17T05:01:13.618Z,55.24
2022-09-17T05:02:13.925Z,55.24
2022-09-17T05:03:14.161Z,55.24
2022-09-17T05:04:14.410Z,55.24
2022-09-17T05:05:14.657Z,55.24
2022-09-17T05:06:14.899Z,55.24
2022-09-17T05:07:15.140Z,55.24
2022-09-17T05:08:15.388Z,55.24
2022-09-17T05:09:15.710Z,55.24
2022-09-17T05:10:15.961Z,55.24
2022-09-17T05:11:16.210Z,55.24
2022-09-17T05:12:16.450Z,55.15
2022-09-17T05:13:16.762Z,55.15
2022-09-17T05:14:16.972Z,55.24
2022-09-17T05:15:17.213Z,55.15
2022-09-17T05:16:17.536Z,55.15
2022-09-17T05:17:17.772Z,55.24
2022-09-17T05:18:18.014Z,55.24
2022-09-17T05:19:18.256Z,55.15
2022-09-17T05:20:18.507Z,55.35
2022-09-17T05:21:18.763Z,55.44
2022-09-17T05:22:21.451Z,55.55
2022-09-17T05:23:19.288Z,55.55
2022-09-17T05:24:19.545Z,55.55
2022-09-17T05:25:19.805Z,55.55
2022-09-17T05:26:20.056Z,55.44
2022-09-17T05:27:20.316Z,55.44
2022-09-17T05:28:20.577Z,55.44
2022-09-17T05:29:20.907Z,55.44
2022-09-17T05:30:21.146Z,55.44
2022-09-17T05:31:21.421Z,55.35
2022-09-17T05:32:21.678Z,55.35
2022-09-17T05:33:21.939Z,55.24
2022-09-17T05:34:22.200Z,55.74
2022-09-17T05:35:22.449Z,55.74
2022-09-17T05:36:22.707Z,55.74
2022-09-17T05:37:22.976Z,56.24
2022-09-17T05:38:23.228Z,55.74
2022-09-17T05:39:23.480Z,55.74
2022-09-17T05:40:23.776Z,56.15
2022-09-17T05:41:23.991Z,56.35
2022-09-17T05:42:24.234Z,56.15
2022-09-17T05:43:24.480Z,56.05
2022-09-17T05:44:24.722Z,56.05
2022-09-17T05:45:24.964Z,56.15
2022-09-17T05:46:25.315Z,56.35
2022-09-17T05:47:25.501Z,56.55
2022-09-17T05:48:25.742Z,56.55
2022-09-17T05:49:25.983Z,56.55
2022-09-17T05:50:26.225Z,56.45
2022-09-17T05:51:26.477Z,56.45
2022-09-17T05:52:26.717Z,56.35
2022-09-17T05:53:26.955Z,56.24
2022-09-17T05:54:27.216Z,56.15
2022-09-17T05:55:27.457Z,56.05
2022-09-17T05:56:27.696Z,55.94
2022-09-17T05:57:27.945Z,55.94
2022-09-17T05:58:28.186Z,55.94
2022-09-17T05:59:28.437Z,55.94
2022-09-17T06:00:28.676Z,55.94
2022-09-17T06:01:29.005Z,55.94
2022-09-17T06:02:29.286Z,55.94
2022-09-17T06:03:29.523Z,56.05
2022-09-17T06:04:34.559Z,55.94
2022-09-17T06:05:31.009Z,55.94
2022-09-17T06:06:30.299Z,56.05
2022-09-17T06:07:30.539Z,55.94
2022-09-17T06:08:30.871Z,55.94
2022-09-17T06:09:31.129Z,55.94
2022-09-17T06:10:31.360Z,55.94
2022-09-17T06:11:31.630Z,55.94
2022-09-17T06:12:31.919Z,55.94
2022-09-17T06:13:32.171Z,55.85
2022-09-17T06:14:32.422Z,55.85
2022-09-17T06:15:32.677Z,55.94
2022-09-17T06:16:33.015Z,55.94
2022-09-17T06:17:33.203Z,56.05
2022-09-17T06:18:33.443Z,55.94
2022-09-17T06:19:33.702Z,55.85
2022-09-17T06:20:33.962Z,55.85
2022-09-17T06:21:34.212Z,55.94
2022-09-17T06:22:34.444Z,55.85
2022-09-17T06:23:34.686Z,55.85
2022-09-17T06:24:34.938Z,55.85
2022-09-17T06:25:35.195Z,55.85
2022-09-17T06:26:35.444Z,55.74
2022-09-17T06:27:35.705Z,55.74
2022-09-17T06:28:41.241Z,55.74
2022-09-17T06:29:37.177Z,55.74
2022-09-17T06:30:36.476Z,55.74
2022-09-17T06:31:36.767Z,55.74
2022-09-17T06:32:36.987Z,55.74
2022-09-17T06:33:37.233Z,55.74
2022-09-17T06:34:37.476Z,55.74
2022-09-17T06:35:38.707Z,55.74
2022-09-17T06:36:38.010Z,55.65
2022-09-17T06:37:38.258Z,55.74
2022-09-17T06:38:38.490Z,55.74
2022-09-17T06:39:38.746Z,55.74
2022-09-17T06:40:39.047Z,55.74
2022-09-17T06:41:39.290Z,55.74
2022-09-17T06:42:39.531Z,55.74
2022-09-17T06:43:39.800Z,55.65
2022-09-17T06:44:40.061Z,55.65
2022-09-17T06:45:40.361Z,55.65
2022-09-17T06:46:40.638Z,55.65
2022-09-17T06:47:40.892Z,55.65
2022-09-17T06:48:41.132Z,55.55
2022-09-17T06:49:41.494Z,55.44
2022-09-17T06:50:42.881Z,55.55
2022-09-17T06:51:41.944Z,55.55
2022-09-17T06:52:42.184Z,55.55
2022-09-17T06:53:42.434Z,55.55
2022-09-17T06:54:42.715Z,55.65
2022-09-17T06:55:42.954Z,55.55
2022-09-17T06:56:43.206Z,55.55
2022-09-17T06:57:43.445Z,55.55
2022-09-17T06:58:43.693Z,55.55
2022-09-17T06:59:43.946Z,55.44
2022-09-17T07:00:44.258Z,55.44
2022-09-17T07:01:44.507Z,55.44
2022-09-17T07:02:44.754Z,55.44
2022-09-17T07:03:44.996Z,55.55
2022-09-17T07:04:45.238Z,55.44
2022-09-17T07:05:45.487Z,55.44
2022-09-17T07:06:45.728Z,55.35
2022-09-17T07:07:45.968Z,55.24
2022-09-17T07:08:46.275Z,55.24
2022-09-17T07:09:46.519Z,55.24
2022-09-17T07:10:46.811Z,55.24
2022-09-17T07:11:47.049Z,55.24
2022-09-17T07:12:49.955Z,55.24
2022-09-17T07:13:47.641Z,55.35
2022-09-17T07:14:47.890Z,55.24
2022-09-17T07:15:48.149Z,55.24
2022-09-17T07:16:48.381Z,55.24
2022-09-17T07:17:48.625Z,55.35
2022-09-17T07:18:48.863Z,55.44
2022-09-17T07:19:49.102Z,55.35
2022-09-17T07:20:49.343Z,55.35
2022-09-17T07:21:49.591Z,55.35
2022-09-17T07:22:49.823Z,55.35
2022-09-17T07:23:50.084Z,55.35
2022-09-17T07:24:50.337Z,55.24
2022-09-17T07:25:50.574Z,55.24
2022-09-17T07:26:50.823Z,55.24
2022-09-17T07:27:51.064Z,55.24
2022-09-17T07:28:51.295Z,55.24
2022-09-17T07:29:51.545Z,55.15
2022-09-17T07:30:51.807Z,55.24
2022-09-17T07:31:52.098Z,55.35
2022-09-17T07:32:52.336Z,55.35
2022-09-17T07:33:52.579Z,55.44
2022-09-17T07:34:52.827Z,55.24
2022-09-17T07:35:53.076Z,55.15
2022-09-17T07:36:53.307Z,55.15
2022-09-17T07:37:53.558Z,55.15
2022-09-17T07:38:53.808Z,55.17
2022-09-17T07:39:54.100Z,55.15
2022-09-17T07:40:54.322Z,55.15
2022-09-17T07:41:54.559Z,55.07
2022-09-17T07:42:54.799Z,55.17
2022-09-17T07:43:55.047Z,55.17
2022-09-17T07:44:58.640Z,55.27
2022-09-17T07:45:56.519Z,55.17
2022-09-17T07:46:55.848Z,55.17
2022-09-17T07:47:56.089Z,55.17
2022-09-17T07:48:56.331Z,55.17
2022-09-17T07:49:56.571Z,55.07
2022-09-17T07:50:56.832Z,55.07
2022-09-17T07:51:57.072Z,55.07
2022-09-17T07:52:57.313Z,55.07
2022-09-17T07:53:57.613Z,55.17
2022-09-17T07:54:57.853Z,55.17
2022-09-17T07:55:58.102Z,55.07
2022-09-17T07:56:58.343Z,55.07
2022-09-17T07:57:58.656Z,55.07
2022-09-17T07:58:58.986Z,55.07
2022-09-17T07:59:59.213Z,55.07
2022-09-17T08:00:59.454Z,55.07
2022-09-17T08:01:59.864Z,55.07
2022-09-17T08:02:59.994Z,55.07
2022-09-17T08:04:00.237Z,55.07
2022-09-17T08:05:00.499Z,55.07
2022-09-17T08:06:00.806Z,55.07
2022-09-17T08:07:01.057Z,54.97
2022-09-17T08:08:01.315Z,54.97
2022-09-17T08:09:01.567Z,55.07
2022-09-17T08:10:01.826Z,55.07
2022-09-17T08:11:02.078Z,55.07
2022-09-17T08:12:02.342Z,55.07
2022-09-17T08:13:02.599Z,54.97
2022-09-17T08:14:02.857Z,54.97
2022-09-17T08:15:03.119Z,54.97
2022-09-17T08:16:03.423Z,54.97
2022-09-17T08:17:03.690Z,54.97
2022-09-17T08:18:03.949Z,54.97
2022-09-17T08:19:04.201Z,55.07
2022-09-17T08:20:04.461Z,55.07
2022-09-17T08:21:04.710Z,55.17
2022-09-17T08:22:04.961Z,54.97
2022-09-17T08:23:05.220Z,54.87
2022-09-17T08:24:05.482Z,54.87
2022-09-17T08:25:05.732Z,54.97
2022-09-17T08:26:06.004Z,54.97
2022-09-17T08:27:06.261Z,54.97
2022-09-17T08:28:06.513Z,54.87
2022-09-17T08:29:06.764Z,54.87
2022-09-17T08:30:07.033Z,54.87
2022-09-17T08:31:07.373Z,54.87
2022-09-17T08:32:07.575Z,54.87
2022-09-17T08:33:07.835Z,54.87
2022-09-17T08:34:08.095Z,54.97
2022-09-17T08:35:08.356Z,54.87
2022-09-17T08:36:08.616Z,54.87
2022-09-17T08:37:08.887Z,54.97
2022-09-17T08:38:09.147Z,54.87
2022-09-17T08:39:09.397Z,54.87
2022-09-17T08:40:09.651Z,54.87
2022-09-17T08:41:09.931Z,54.85
2022-09-17T08:42:10.198Z,54.87
2022-09-17T08:43:10.449Z,54.94
2022-09-17T08:44:10.711Z,55.05
2022-09-17T08:45:10.968Z,55.05
2022-09-17T08:46:11.295Z,54.94
2022-09-17T08:47:11.553Z,54.94
2022-09-17T08:48:11.800Z,54.85
2022-09-17T08:49:12.064Z,54.85
2022-09-17T08:50:12.320Z,54.85
2022-09-17T08:51:12.604Z,54.85
2022-09-17T08:52:12.851Z,54.85
2022-09-17T08:53:13.102Z,54.85
2022-09-17T08:54:13.361Z,54.85
2022-09-17T08:55:13.622Z,54.85
2022-09-17T08:56:13.872Z,54.85
2022-09-17T08:57:14.131Z,54.94
2022-09-17T08:58:14.391Z,54.85
2022-09-17T08:59:18.430Z,54.85
2022-09-17T09:00:15.885Z,54.74
2022-09-17T09:01:15.202Z,54.74
2022-09-17T09:02:15.586Z,54.74
2022-09-17T09:03:15.715Z,54.74
2022-09-17T09:04:15.977Z,54.74
2022-09-17T09:05:16.234Z,54.74
2022-09-17T09:06:16.485Z,54.64
2022-09-17T09:07:16.746Z,54.64
2022-09-17T09:08:17.006Z,54.64
2022-09-17T09:09:17.257Z,54.64
2022-09-17T09:10:17.517Z,54.64
2022-09-17T09:11:17.807Z,54.74
2022-09-17T09:12:18.067Z,54.74
2022-09-17T09:13:18.329Z,54.74
2022-09-17T09:14:18.588Z,54.64
2022-09-17T09:15:18.849Z,54.64
2022-09-17T09:16:19.220Z,54.64
2022-09-17T09:17:19.411Z,54.74
2022-09-17T09:18:19.670Z,54.64
2022-09-17T09:19:20.020Z,54.64
2022-09-17T09:20:20.307Z,54.64
2022-09-17T09:21:20.591Z,54.55
2022-09-17T09:22:20.850Z,54.55
2022-09-17T09:23:21.101Z,54.55
2022-09-17T09:24:21.359Z,54.55
2022-09-17T09:25:21.601Z,54.55
2022-09-17T09:26:21.842Z,54.44
2022-09-17T09:27:22.082Z,54.44
2022-09-17T09:28:22.332Z,54.44
2022-09-17T09:29:22.624Z,54.35
2022-09-17T09:30:22.889Z,54.44
2022-09-17T09:31:23.177Z,54.44
2022-09-17T09:32:23.422Z,54.44
2022-09-17T09:33:23.663Z,54.35
2022-09-17T09:34:23.903Z,54.44
2022-09-17T09:35:24.154Z,54.55
2022-09-17T09:36:24.405Z,54.55
2022-09-17T09:37:24.653Z,54.44
2022-09-17T09:38:24.956Z,54.55
2022-09-17T09:39:25.206Z,54.44
2022-09-17T09:40:25.503Z,54.44
2022-09-17T09:41:25.745Z,54.44
2022-09-17T09:42:26.010Z,54.44
2022-09-17T09:43:36.620Z,54.44
2022-09-17T09:44:27.499Z,54.44
2022-09-17T09:45:26.828Z,54.44
2022-09-17T09:46:27.104Z,54.44
2022-09-17T09:47:27.408Z,54.44
2022-09-17T09:48:27.679Z,54.55
2022-09-17T09:49:27.939Z,54.55
2022-09-17T09:50:42.973Z,54.55
2022-09-17T09:51:29.441Z,54.44
2022-09-17T09:52:28.760Z,54.44
2022-09-17T09:53:29.022Z,54.44
2022-09-17T09:54:29.280Z,54.35
2022-09-17T09:55:29.540Z,54.35
2022-09-17T09:56:29.801Z,54.35
2022-09-17T09:57:30.051Z,54.44
2022-09-17T09:58:30.382Z,54.44
2022-09-17T09:59:30.614Z,54.35
2022-09-17T10:00:30.871Z,54.35
2022-09-17T10:01:31.200Z,54.35
2022-09-17T10:02:31.582Z,54.35
2022-09-17T10:03:31.754Z,54.44
2022-09-17T10:04:32.027Z,54.44
2022-09-17T10:05:32.284Z,54.35
2022-09-17T10:06:32.535Z,54.35
2022-09-17T10:07:32.795Z,54.35
2022-09-17T10:08:33.053Z,54.35
2022-09-17T10:09:33.325Z,54.35
2022-09-17T10:10:33.586Z,54.35
2022-09-17T10:11:33.845Z,54.35
2022-09-17T10:12:34.107Z,54.24
2022-09-17T10:13:34.376Z,54.24
2022-09-17T10:14:34.624Z,54.24
2022-09-17T10:15:34.882Z,54.24
2022-09-17T10:16:35.161Z,54.24
2022-09-17T10:17:35.418Z,54.24
2022-09-17T10:18:35.678Z,54.24
2022-09-17T10:19:35.930Z,54.14
2022-09-17T10:20:36.189Z,54.24
2022-09-17T10:21:36.449Z,54.24
2022-09-17T10:22:36.789Z,54.24
2022-09-17T10:23:37.022Z,54.35
2022-09-17T10:24:37.280Z,54.24
2022-09-17T10:25:37.540Z,54.24
2022-09-17T10:26:37.802Z,54.24
2022-09-17T10:27:38.062Z,54.24
2022-09-17T10:28:38.331Z,54.24
2022-09-17T10:29:38.582Z,54.24
2022-09-17T10:30:38.822Z,54.24
2022-09-17T10:31:39.118Z,54.24
2022-09-17T10:32:39.379Z,54.24
2022-09-17T10:33:39.634Z,54.35
2022-09-17T10:34:39.884Z,54.24
2022-09-17T10:35:40.142Z,54.35
2022-09-17T10:36:40.394Z,54.24
2022-09-17T10:37:40.657Z,54.24
2022-09-17T10:38:40.915Z,54.24
2022-09-17T10:39:41.165Z,54.24
2022-09-17T10:40:41.405Z,54.35
2022-09-17T10:41:41.654Z,54.35
2022-09-17T10:42:41.906Z,54.24
2022-09-17T10:43:42.156Z,54.24
2022-09-17T10:44:42.426Z,54.24
2022-09-17T10:45:42.717Z,54.24
2022-09-17T10:46:43.032Z,54.24
2022-09-17T10:47:43.266Z,54.24
2022-09-17T10:48:43.518Z,54.24
2022-09-17T10:49:43.778Z,54.35
2022-09-17T10:50:44.029Z,54.24
2022-09-17T10:51:44.287Z,54.24
2022-09-17T10:52:44.551Z,54.24
2022-09-17T10:53:44.790Z,54.14
2022-09-17T10:54:46.030Z,54.05
2022-09-17T10:55:45.331Z,54.05
2022-09-17T10:56:45.708Z,54.05
2022-09-17T10:57:45.812Z,54.14
2022-09-17T10:58:46.137Z,54.05
2022-09-17T10:59:46.381Z,54.05
2022-09-17T11:00:46.650Z,54.05
2022-09-17T11:01:46.952Z,54.05
2022-09-17T11:02:47.239Z,54.05
2022-09-17T11:03:47.522Z,54.05
2022-09-17T11:04:47.763Z,54.05
2022-09-17T11:05:48.015Z,54.05
2022-09-17T11:06:48.261Z,54.14
2022-09-17T11:07:48.494Z,54.14
2022-09-17T11:08:48.780Z,54.14
2022-09-17T11:09:48.996Z,54.14
2022-09-17T11:10:49.245Z,54.14
2022-09-17T11:11:49.485Z,54.14
2022-09-17T11:12:49.729Z,54.24
2022-09-17T11:13:50.016Z,54.14
2022-09-17T11:14:50.256Z,54.14
2022-09-17T11:15:53.048Z,54.14
2022-09-17T11:16:50.795Z,54.14
2022-09-17T11:17:51.027Z,54.14
2022-09-17T11:18:51.299Z,54.14
2022-09-17T11:19:51.540Z,54.14
2022-09-17T11:20:51.785Z,54.14
2022-09-17T11:21:52.030Z,54.14
2022-09-17T11:22:52.268Z,54.14
2022-09-17T11:23:52.508Z,54.14
2022-09-17T11:24:52.747Z,54.24
2022-09-17T11:25:55.193Z,54.24
2022-09-17T11:26:54.221Z,54.24
2022-09-17T11:27:53.524Z,54.24
2022-09-17T11:28:53.770Z,54.24
2022-09-17T11:29:54.021Z,54.24
2022-09-17T11:30:54.299Z,54.24
2022-09-17T11:31:54.610Z,54.24
2022-09-17T11:32:54.840Z,54.14
2022-09-17T11:33:55.082Z,54.24
2022-09-17T11:34:55.320Z,54.24
2022-09-17T11:35:55.569Z,54.24
2022-09-17T11:36:55.804Z,54.24
2022-09-17T11:37:59.802Z,54.24
2022-09-17T11:38:56.362Z,54.24
2022-09-17T11:39:56.658Z,54.24
2022-09-17T11:40:56.906Z,54.14
2022-09-17T11:41:57.167Z,54.14
2022-09-17T11:42:57.417Z,54.24
2022-09-17T11:43:57.791Z,54.24
2022-09-17T11:44:58.005Z,54.24
2022-09-17T11:45:58.255Z,54.24
2022-09-17T11:46:58.582Z,54.24
2022-09-17T11:47:58.808Z,54.24
2022-09-17T11:48:59.056Z,54.35
2022-09-17T11:49:59.297Z,54.35
2022-09-17T11:50:59.602Z,54.35
2022-09-17T11:51:59.838Z,54.35
2022-09-17T11:53:00.078Z,54.35
2022-09-17T11:54:00.318Z,54.35
2022-09-17T11:55:00.569Z,54.35
2022-09-17T11:56:00.842Z,54.35
2022-09-17T11:57:01.077Z,54.35
2022-09-17T11:58:01.320Z,54.35
2022-09-17T11:59:01.680Z,54.35
2022-09-17T12:00:01.852Z,54.35
2022-09-17T12:01:02.120Z,54.35
2022-09-17T12:02:02.491Z,54.37
2022-09-17T12:03:02.754Z,54.37
2022-09-17T12:04:03.011Z,54.37
2022-09-17T12:05:03.280Z,54.37
2022-09-17T12:06:03.554Z,54.47
2022-09-17T12:07:03.793Z,54.37
2022-09-17T12:08:04.042Z,54.47
2022-09-17T12:09:04.284Z,54.47
2022-09-17T12:10:04.527Z,54.47
2022-09-17T12:11:04.764Z,54.37
2022-09-17T12:12:05.024Z,54.47
2022-09-17T12:13:05.274Z,54.47
2022-09-17T12:14:05.535Z,54.47
2022-09-17T12:15:05.785Z,54.47
2022-09-17T12:16:06.089Z,54.37
2022-09-17T12:17:06.326Z,54.47
2022-09-17T12:18:30.554Z,54.37
2022-09-17T12:19:07.864Z,54.37
2022-09-17T12:20:07.166Z,54.37
2022-09-17T12:21:07.406Z,54.37
2022-09-17T12:22:07.648Z,54.37
2022-09-17T12:23:07.889Z,54.37
2022-09-17T12:24:08.148Z,54.47
2022-09-17T12:25:08.398Z,54.57
2022-09-17T12:26:08.669Z,54.57
2022-09-17T12:27:08.918Z,54.57
2022-09-17T12:28:09.169Z,54.47
2022-09-17T12:29:09.428Z,54.57
2022-09-17T12:30:09.703Z,54.47
2022-09-17T12:31:09.970Z,54.47
2022-09-17T12:32:10.289Z,54.47
2022-09-17T12:33:10.542Z,54.47
2022-09-17T12:34:10.800Z,54.57
2022-09-17T12:35:11.061Z,54.57
2022-09-17T12:36:11.323Z,54.57
2022-09-17T12:37:11.572Z,54.47
2022-09-17T12:38:11.832Z,54.47
2022-09-17T12:39:12.092Z,54.47
2022-09-17T12:40:12.402Z,54.47
2022-09-17T12:41:12.653Z,54.47
2022-09-17T12:42:12.914Z,54.47
2022-09-17T12:43:13.164Z,54.47
2022-09-17T12:44:13.424Z,54.47
2022-09-17T12:45:13.682Z,54.47
2022-09-17T12:46:13.990Z,54.47
2022-09-17T12:47:14.235Z,54.57
2022-09-17T12:48:14.503Z,54.57
2022-09-17T12:49:14.760Z,54.57
2022-09-17T12:50:15.014Z,54.47
2022-09-17T12:51:15.267Z,54.47
2022-09-17T12:52:15.545Z,54.57
2022-09-17T12:53:15.786Z,54.57
2022-09-17T12:54:16.037Z,54.57
2022-09-17T12:55:16.296Z,54.57
2022-09-17T12:56:16.539Z,54.67